Time;durP1;ratioP1;P1;durP2;ratioP2;P2;SDS_P1;SDS_P2;PMS_P1;PMS_P2;Temp;Humidity;BMP_temperature;BMP_pressure;BME280_temperature;BME280_humidity;BME280_pressure;Samples;Min_cycle;Max_cycle;Signal;HPM_P1;HPM_P2
2023/12/03 00:00:24;;;;;;;160.52;98.90;;;;;;;14.21;nan;99157.94;4767010;30;20079;-63
2023/12/03 00:02:54;;;;;;;162.75;99.72;;;;;;;14.25;nan;99156.53;4762063;30;20655;-63
2023/12/03 00:05:24;;;;;;;151.23;100.93;;;;;;;14.27;nan;99165.94;4765137;30;20069;-63
2023/12/03 00:07:53;;;;;;;151.23;101.30;;;;;;;14.34;nan;99169.41;4764953;30;20048;-63
2023/12/03 00:10:23;;;;;;;143.30;98.50;;;;;;;14.34;nan;99168.59;4763380;29;20210;-65
2023/12/03 00:12:53;;;;;;;150.15;96.78;;;;;;;14.34;nan;99177.41;4763359;29;20056;-65
2023/12/03 00:15:23;;;;;;;142.80;96.07;;;;;;;14.20;nan;99173.13;4764205;29;20056;-65
2023/12/03 00:17:52;;;;;;;136.57;92.70;;;;;;;14.17;nan;99183.34;4767117;29;20051;-65
2023/12/03 00:20:22;;;;;;;144.93;93.28;;;;;;;14.09;nan;99186.19;4763004;29;20051;-66
2023/12/03 00:22:52;;;;;;;143.80;94.00;;;;;;;14.18;nan;99180.47;4763465;29;20822;-66
2023/12/03 00:25:21;;;;;;;139.45;99.43;;;;;;;14.18;nan;99184.97;4765534;29;20063;-66
2023/12/03 00:27:52;;;;;;;145.45;97.72;;;;;;;14.15;nan;99182.72;4764321;29;20067;-65
2023/12/03 00:30:21;;;;;;;155.18;98.50;;;;;;;13.98;nan;99181.50;4762417;29;20074;-64
2023/12/03 00:32:51;;;;;;;141.63;95.95;;;;;;;14.00;nan;99182.91;4764292;29;20417;-64
2023/12/03 00:35:21;;;;;;;137.73;95.78;;;;;;;14.07;nan;99183.75;4764246;29;20059;-64
2023/12/03 00:37:51;;;;;;;151.32;97.30;;;;;;;13.99;nan;99191.09;4767346;29;20083;-64
2023/12/03 00:40:20;;;;;;;134.25;95.22;;;;;;;14.03;nan;99195.03;4761159;30;20082;-64
2023/12/03 00:42:50;;;;;;;143.13;99.20;;;;;;;14.13;nan;99198.91;4767598;30;20062;-64
2023/12/03 00:45:22;;;;;;;151.90;99.75;;;;;;;14.09;nan;99202.19;4762766;30;20066;-64
2023/12/03 00:47:51;;;;;;;150.45;101.65;;;;;;;14.03;nan;99213.66;4760382;29;20062;-64
2023/12/03 00:50:21;;;;;;;144.85;99.55;;;;;;;13.93;nan;99214.88;4761753;29;20060;-64
2023/12/03 00:52:50;;;;;;;143.07;97.70;;;;;;;13.81;nan;99210.31;4764292;30;20077;-64
2023/12/03 00:55:20;;;;;;;145.30;101.95;;;;;;;13.91;nan;99210.75;4763802;30;20056;-64
2023/12/03 00:57:50;;;;;;;145.57;101.60;;;;;;;13.91;nan;99213.41;4763654;30;20066;-64
2023/12/03 01:00:20;;;;;;;140.98;97.63;;;;;;;13.78;nan;99213.38;4757479;30;20410;-64
2023/12/03 01:02:49;;;;;;;146.88;98.47;;;;;;;13.83;nan;99217.09;4761658;30;20048;-64
2023/12/03 01:05:19;;;;;;;145.57;99.28;;;;;;;13.76;nan;99212.78;4761393;29;20047;-64
2023/12/03 01:07:48;;;;;;;137.48;98.05;;;;;;;13.79;nan;99223.00;4763950;30;20370;-64
2023/12/03 01:10:18;;;;;;;148.50;101.32;;;;;;;13.98;nan;99218.75;4762629;30;20047;-64
2023/12/03 01:12:47;;;;;;;142.98;99.53;;;;;;;13.94;nan;99213.00;4763759;30;20048;-64
2023/12/03 01:15:17;;;;;;;135.85;97.13;;;;;;;13.79;nan;99215.84;4761185;30;20055;-64
2023/12/03 01:17:46;;;;;;;147.82;99.60;;;;;;;13.73;nan;99224.63;4763050;30;20063;-64
2023/12/03 01:20:16;;;;;;;157.05;104.05;;;;;;;13.41;nan;99226.13;4760993;29;20481;-64
2023/12/03 01:22:46;;;;;;;148.27;98.57;;;;;;;13.48;nan;99231.50;4763765;30;20055;-64
2023/12/03 01:25:15;;;;;;;137.73;99.40;;;;;;;13.29;nan;99232.22;4760879;30;20082;-64
2023/12/03 01:27:45;;;;;;;149.00;100.28;;;;;;;13.52;nan;99231.91;4762933;30;20384;-64
2023/12/03 01:30:14;;;;;;;151.27;100.95;;;;;;;13.37;nan;99235.53;4746656;30;20467;-66
2023/12/03 01:32:46;;;;;;;142.93;100.72;;;;;;;13.18;nan;99244.25;4765375;30;20134;-63
2023/12/03 01:35:17;;;;;;;145.18;99.63;;;;;;;13.13;nan;99249.31;4758241;30;20086;-64
2023/12/03 01:37:46;;;;;;;149.75;101.20;;;;;;;13.43;nan;99255.22;4762028;30;20062;-64
2023/12/03 01:40:16;;;;;;;148.00;102.82;;;;;;;13.56;nan;99255.28;4762049;30;20063;-64
2023/12/03 01:42:46;;;;;;;155.43;105.13;;;;;;;13.51;nan;99260.34;4747084;30;20051;-63
2023/12/03 01:45:15;;;;;;;153.02;102.72;;;;;;;13.67;nan;99264.53;4760580;30;20485;-63
2023/12/03 01:47:45;;;;;;;154.82;105.47;;;;;;;13.55;nan;99279.41;4762588;30;20505;-63
2023/12/03 01:50:15;;;;;;;144.82;102.30;;;;;;;13.55;nan;99284.72;4759377;30;20076;-63
2023/12/03 01:52:45;;;;;;;149.05;100.13;;;;;;;13.55;nan;99290.06;4762630;30;20055;-63
2023/12/03 01:55:20;;;;;;;147.77;102.10;;;;;;;13.41;nan;99279.34;4760046;30;20140;-63
2023/12/03 01:57:49;;;;;;;148.52;103.75;;;;;;;13.24;nan;99290.50;4761111;29;20063;-63
2023/12/03 02:00:19;;;;;;;146.32;100.90;;;;;;;13.40;nan;99291.03;4761806;30;20052;-63
2023/12/03 02:02:49;;;;;;;146.20;101.80;;;;;;;13.58;nan;99287.00;4762714;30;20048;-63
2023/12/03 02:05:18;;;;;;;147.38;103.05;;;;;;;13.64;nan;99299.53;4758490;29;20079;-64
2023/12/03 02:07:48;;;;;;;142.82;101.75;;;;;;;13.32;nan;99296.47;4759766;30;20048;-63
2023/12/03 02:10:17;;;;;;;153.98;103.93;;;;;;;13.66;nan;99308.97;4762407;29;20071;-63
2023/12/03 02:12:48;;;;;;;143.57;102.95;;;;;;;13.73;nan;99314.31;4761579;29;20139;-63
2023/12/03 02:15:17;;;;;;;154.90;104.30;;;;;;;13.74;nan;99318.63;4763472;30;20062;-63
2023/12/03 02:17:47;;;;;;;158.95;106.72;;;;;;;13.63;nan;99316.53;4761828;29;20641;-63
2023/12/03 02:20:17;;;;;;;157.32;106.78;;;;;;;13.63;nan;99324.50;4762910;29;20155;-63
2023/12/03 02:23:00;;;;;;;163.90;103.18;;;;;;;13.60;nan;99330.22;4763537;29;20066;-63
2023/12/03 02:25:29;;;;;;;149.77;104.60;;;;;;;13.85;nan;99340.16;4767005;29;20063;-63
2023/12/03 02:27:59;;;;;;;148.68;102.15;;;;;;;13.81;nan;99344.25;4759274;29;20083;-63
2023/12/03 02:30:28;;;;;;;154.90;107.43;;;;;;;14.08;nan;99342.53;4764179;30;20143;-63
2023/12/03 02:32:58;;;;;;;161.35;106.97;;;;;;;14.13;nan;99342.75;4764490;30;20147;-63
2023/12/03 02:35:27;;;;;;;161.70;105.43;;;;;;;14.21;nan;99347.91;4760319;29;20055;-63
2023/12/03 02:37:57;;;;;;;154.05;105.05;;;;;;;14.06;nan;99352.56;4761967;29;20377;-63
2023/12/03 02:40:26;;;;;;;143.77;104.20;;;;;;;14.28;nan;99359.41;4762511;29;20051;-63
2023/12/03 02:42:56;;;;;;;158.15;106.18;;;;;;;14.18;nan;99366.13;4764532;30;20051;-63
2023/12/03 02:45:25;;;;;;;163.88;111.55;;;;;;;14.28;nan;99367.41;4766018;29;20072;-63
2023/12/03 02:47:55;;;;;;;159.88;111.55;;;;;;;14.55;nan;99367.50;4760606;29;20056;-63
2023/12/03 02:50:24;;;;;;;158.70;107.20;;;;;;;14.68;nan;99367.53;4761082;29;20060;-63
2023/12/03 02:52:54;;;;;;;145.70;103.63;;;;;;;14.67;nan;99356.06;4764785;29;20059;-63
2023/12/03 02:55:23;;;;;;;149.63;106.22;;;;;;;14.71;nan;99370.63;4761516;29;20060;-63
2023/12/03 02:57:52;;;;;;;164.75;105.00;;;;;;;14.81;nan;99367.56;4765954;29;20142;-63
2023/12/03 03:00:22;;;;;;;148.20;106.25;;;;;;;14.68;nan;99371.03;4754723;29;20083;-64
2023/12/03 03:02:54;;;;;;;163.85;107.00;;;;;;;14.82;nan;99369.22;4769967;29;20055;-64
2023/12/03 03:05:23;;;;;;;148.18;107.15;;;;;;;15.04;nan;99375.19;4771158;29;20051;-64
2023/12/03 03:07:53;;;;;;;152.73;106.50;;;;;;;15.07;nan;99388.09;4770565;29;20252;-64
2023/12/03 03:10:23;;;;;;;156.63;106.80;;;;;;;15.26;nan;99376.63;4761003;29;20063;-64
2023/12/03 03:12:52;;;;;;;153.68;105.78;;;;;;;15.37;nan;99375.16;4766295;29;20060;-64
2023/12/03 03:15:22;;;;;;;150.50;102.15;;;;;;;15.59;nan;99385.44;4763709;29;20140;-64
2023/12/03 03:17:51;;;;;;;144.43;102.13;;;;;;;15.98;nan;99387.19;4759280;29;20129;-64
2023/12/03 03:20:23;;;;;;;149.32;102.22;;;;;;;16.25;nan;99387.91;4759046;29;20150;-64
2023/12/03 03:22:53;;;;;;;136.95;99.50;;;;;;;16.61;nan;99388.19;4759764;29;20051;-64
2023/12/03 03:25:23;;;;;;;141.70;98.18;;;;;;;17.38;nan;99396.91;4762590;30;20052;-64
2023/12/03 03:27:53;;;;;;;143.57;97.95;;;;;;;17.66;nan;99405.31;4757946;29;20090;-64
2023/12/03 03:30:22;;;;;;;134.57;97.30;;;;;;;18.05;nan;99400.59;4758631;29;20071;-64
2023/12/03 03:32:51;;;;;;;144.27;99.32;;;;;;;18.70;nan;99407.03;4762809;29;20059;-64
2023/12/03 03:35:21;;;;;;;131.77;98.35;;;;;;;19.14;nan;99417.31;4761284;29;20063;-64
2023/12/03 03:37:51;;;;;;;137.10;97.45;;;;;;;19.31;nan;99417.47;4757130;29;20048;-64
2023/12/03 03:40:20;;;;;;;134.68;96.57;;;;;;;19.22;nan;99419.66;4776615;30;20055;-65
2023/12/03 03:42:50;;;;;;;133.13;97.10;;;;;;;20.28;nan;99423.19;4772082;29;20130;-64
2023/12/03 03:45:19;;;;;;;136.18;97.15;;;;;;;20.41;nan;99428.31;4768086;29;20067;-64
2023/12/03 03:47:49;;;;;;;136.57;94.45;;;;;;;20.61;nan;99429.56;4764182;29;20047;-64
2023/12/03 03:50:19;;;;;;;131.77;95.40;;;;;;;21.48;nan;99438.16;4781709;29;20158;-65
2023/12/03 03:52:49;;;;;;;133.82;95.03;;;;;;;20.89;nan;99436.03;4775435;29;20124;-64
2023/12/03 03:55:18;;;;;;;124.15;91.18;;;;;;;21.24;nan;99447.47;4771341;30;20066;-65
2023/12/03 03:57:48;;;;;;;131.73;90.07;;;;;;;21.40;nan;99443.94;4773084;30;20051;-64
2023/12/03 04:00:18;;;;;;;120.88;87.93;;;;;;;22.27;nan;99456.84;4764653;30;20059;-64
2023/12/03 04:02:48;;;;;;;122.82;88.07;;;;;;;21.92;nan;99451.75;4771239;30;20047;-64
2023/12/03 04:05:17;;;;;;;120.43;86.85;;;;;;;23.04;nan;99454.03;4769266;29;20075;-64
2023/12/03 04:07:46;;;;;;;112.15;82.38;;;;;;;23.57;nan;99453.19;4767783;30;20062;-65
2023/12/03 04:10:16;;;;;;;117.05;81.60;;;;;;;23.18;nan;99463.34;4777235;29;20155;-65
2023/12/03 04:12:47;;;;;;;106.20;79.90;;;;;;;22.73;nan;99458.28;4774367;30;20070;-65
2023/12/03 04:15:17;;;;;;;108.50;79.47;;;;;;;23.54;nan;99464.53;4773213;29;20066;-65
2023/12/03 04:17:47;;;;;;;102.80;74.40;;;;;;;22.84;nan;99462.72;4774299;29;20055;-65
2023/12/03 04:20:17;;;;;;;91.65;68.00;;;;;;;23.44;nan;99470.66;4780193;30;20062;-65
2023/12/03 04:22:46;;;;;;;102.55;73.53;;;;;;;23.71;nan;99463.31;4774179;29;20060;-65
2023/12/03 04:25:16;;;;;;;102.63;75.20;;;;;;;23.92;nan;99472.38;4775200;29;20067;-65
2023/12/03 04:27:45;;;;;;;97.97;73.72;;;;;;;24.49;nan;99469.75;4769371;29;20787;-65
2023/12/03 04:30:15;;;;;;;99.03;70.90;;;;;;;24.11;nan;99472.78;4764211;29;20060;-65
2023/12/03 04:32:44;;;;;;;89.55;68.05;;;;;;;23.68;nan;99473.81;4767025;30;20059;-65
2023/12/03 04:35:14;;;;;;;93.82;69.75;;;;;;;23.63;nan;99476.50;4766476;30;20490;-65
2023/12/03 04:37:45;;;;;;;96.07;70.20;;;;;;;23.16;nan;99473.59;4761623;30;20052;-66
2023/12/03 04:40:16;;;;;;;84.75;62.75;;;;;;;22.65;nan;99469.50;4763055;29;20052;-65
2023/12/03 04:42:46;;;;;;;86.85;67.68;;;;;;;22.52;nan;99476.09;4765357;29;20056;-65
2023/12/03 04:45:15;;;;;;;89.45;67.32;;;;;;;22.58;nan;99487.75;4770525;29;20134;-65
2023/12/03 04:47:44;;;;;;;93.22;65.55;;;;;;;22.75;nan;99475.03;4755891;29;20055;-65
2023/12/03 04:50:14;;;;;;;80.00;62.47;;;;;;;22.54;nan;99473.94;4769548;29;20056;-65
2023/12/03 04:52:44;;;;;;;77.60;58.33;;;;;;;22.44;nan;99475.72;4767644;29;20444;-66
2023/12/03 04:55:13;;;;;;;75.60;56.25;;;;;;;22.47;nan;99481.44;4763185;29;20056;-65
2023/12/03 04:57:43;;;;;;;72.78;55.88;;;;;;;22.18;nan;99477.25;4768628;29;20362;-65
2023/12/03 05:00:13;;;;;;;78.50;59.50;;;;;;;21.85;nan;99473.53;4769409;29;20091;-64
2023/12/03 05:02:43;;;;;;;79.20;58.67;;;;;;;22.00;nan;99475.63;4761980;29;20055;-65
2023/12/03 05:05:13;;;;;;;79.35;58.00;;;;;;;22.03;nan;99475.16;4764130;30;20060;-66
2023/12/03 05:07:43;;;;;;;72.90;55.88;;;;;;;22.01;nan;99473.75;4762445;29;20064;-68
2023/12/03 05:10:13;;;;;;;74.00;51.97;;;;;;;22.11;nan;99477.44;4762328;29;20067;-67
2023/12/03 05:12:42;;;;;;;69.13;52.75;;;;;;;22.11;nan;99476.63;4763797;30;20067;-68
2023/12/03 05:15:12;;;;;;;70.45;54.30;;;;;;;21.99;nan;99468.63;4761259;29;20052;-68
2023/12/03 05:17:42;;;;;;;71.78;54.85;;;;;;;21.97;nan;99470.75;4762002;29;20473;-68
2023/12/03 05:20:11;;;;;;;73.55;52.08;;;;;;;21.99;nan;99468.63;4761858;29;20060;-68
2023/12/03 05:22:41;;;;;;;70.32;50.08;;;;;;;22.02;nan;99473.53;4753963;29;20608;-68
2023/12/03 05:25:14;;;;;;;63.25;47.60;;;;;;;22.01;nan;99463.78;4761991;30;20055;-68
2023/12/03 05:27:43;;;;;;;60.30;42.10;;;;;;;22.03;nan;99464.38;4759450;29;20070;-68
2023/12/03 05:30:14;;;;;;;56.95;41.58;;;;;;;22.16;nan;99468.59;4761837;29;20055;-68
2023/12/03 05:32:44;;;;;;;55.92;40.40;;;;;;;22.00;nan;99464.03;4768326;29;20136;-68
2023/12/03 05:35:13;;;;;;;58.03;40.40;;;;;;;22.17;nan;99462.16;4763537;29;20830;-68
2023/12/03 05:37:43;;;;;;;53.88;39.85;;;;;;;22.06;nan;99463.88;4761519;29;20139;-68
2023/12/03 05:40:13;;;;;;;61.63;42.47;;;;;;;22.22;nan;99468.41;4762403;29;20051;-67
2023/12/03 05:42:43;;;;;;;51.00;39.78;;;;;;;22.21;nan;99456.00;4757751;30;20059;-68
2023/12/03 05:45:12;;;;;;;60.63;42.90;;;;;;;22.01;nan;99453.00;4762305;29;20159;-69
2023/12/03 05:47:42;;;;;;;50.22;38.85;;;;;;;22.36;nan;99452.66;4759488;30;20153;-67
2023/12/03 05:50:12;;;;;;;51.75;37.53;;;;;;;22.49;nan;99449.59;4768921;29;20175;-68
2023/12/03 05:52:42;;;;;;;51.25;38.13;;;;;;;22.76;nan;99452.38;4759727;30;20076;-68
2023/12/03 05:55:12;;;;;;;52.22;35.25;;;;;;;22.84;nan;99441.94;4760451;29;20110;-68
2023/12/03 05:57:41;;;;;;;47.03;34.15;;;;;;;22.80;nan;99442.69;4761220;29;20059;-68
2023/12/03 06:00:11;;;;;;;52.33;34.80;;;;;;;22.62;nan;99446.50;4768371;29;20067;-68
2023/12/03 06:02:41;;;;;;;56.10;35.03;;;;;;;22.86;nan;99444.38;4764138;29;20055;-68
2023/12/03 06:05:11;;;;;;;44.65;32.55;;;;;;;23.24;nan;99444.22;4761268;29;20051;-68
2023/12/03 06:07:40;;;;;;;48.00;34.08;;;;;;;23.14;nan;99435.22;4758564;29;20473;-67
2023/12/03 06:10:10;;;;;;;44.97;35.53;;;;;;;23.37;nan;99437.56;4759012;29;20055;-67
2023/12/03 06:12:39;;;;;;;46.50;33.60;;;;;;;23.40;nan;99430.84;4761753;30;20141;-68
2023/12/03 06:15:09;;;;;;;44.85;31.52;;;;;;;23.31;nan;99427.81;4758868;29;20154;-68
2023/12/03 06:17:39;;;;;;;43.50;32.38;;;;;;;23.07;nan;99415.66;4760976;29;20048;-68
2023/12/03 06:20:09;;;;;;;41.33;30.90;;;;;;;23.46;nan;99419.81;4758371;29;20048;-67
2023/12/03 06:22:39;;;;;;;40.70;31.65;;;;;;;23.44;nan;99415.75;4759469;29;20063;-67
2023/12/03 06:25:09;;;;;;;44.85;32.72;;;;;;;23.25;nan;99410.72;4753787;30;20154;-67
2023/12/03 06:27:40;;;;;;;46.95;34.47;;;;;;;23.08;nan;99406.50;4757061;30;20060;-67
2023/12/03 06:30:10;;;;;;;43.22;33.58;;;;;;;23.23;nan;99402.03;4758169;30;20055;-67
2023/12/03 06:32:39;;;;;;;46.58;34.92;;;;;;;23.17;nan;99388.75;4761466;29;20055;-67
2023/12/03 06:35:11;;;;;;;47.70;33.45;;;;;;;23.33;nan;99395.91;4758639;29;20052;-67
2023/12/03 06:37:41;;;;;;;44.00;32.42;;;;;;;23.28;nan;99390.44;4759045;29;20062;-67
2023/12/03 06:40:11;;;;;;;46.47;33.70;;;;;;;23.41;nan;99383.81;4758087;29;20069;-68
2023/12/03 06:42:41;;;;;;;45.45;33.97;;;;;;;23.68;nan;99369.13;4760622;30;20055;-68
2023/12/03 06:45:12;;;;;;;49.15;33.45;;;;;;;23.46;nan;99371.16;4759861;30;20816;-68
2023/12/03 06:47:42;;;;;;;45.55;33.30;;;;;;;23.21;nan;99360.94;4762059;29;20125;-66
2023/12/03 06:50:11;;;;;;;40.80;31.63;;;;;;;23.49;nan;99351.72;4759270;30;20051;-68
2023/12/03 06:52:40;;;;;;;39.53;30.23;;;;;;;23.46;nan;99348.72;4759809;30;20059;-69
2023/12/03 06:55:10;;;;;;;37.83;30.65;;;;;;;23.31;nan;99344.00;4757601;29;20291;-69
2023/12/03 06:57:40;;;;;;;37.03;30.40;;;;;;;23.64;nan;99334.75;4760960;29;20054;-67
2023/12/03 07:00:10;;;;;;;48.22;32.08;;;;;;;23.54;nan;99335.53;4760804;29;20104;-68
2023/12/03 07:02:40;;;;;;;41.28;30.30;;;;;;;23.38;nan;99332.94;4762122;29;20059;-68
2023/12/03 07:05:10;;;;;;;40.92;30.52;;;;;;;23.51;nan;99330.63;4762955;29;20047;-68
2023/12/03 07:07:40;;;;;;;42.95;31.10;;;;;;;23.65;nan;99325.56;4759293;30;20090;-68
2023/12/03 07:10:10;;;;;;;38.55;29.77;;;;;;;23.62;nan;99318.00;4758293;29;20150;-68
2023/12/03 07:12:40;;;;;;;39.53;29.92;;;;;;;22.91;nan;99320.16;4755234;30;20279;-69
2023/12/03 07:15:09;;;;;;;41.40;29.90;;;;;;;23.10;nan;99318.69;4755558;29;20159;-68
2023/12/03 07:17:42;;;;;;;46.58;30.55;;;;;;;23.32;nan;99315.91;4757736;30;20079;-68
2023/12/03 07:20:12;;;;;;;36.78;27.92;;;;;;;23.31;nan;99308.84;4757743;29;20154;-68
2023/12/03 07:22:42;;;;;;;42.78;30.00;;;;;;;23.22;nan;99305.00;4775255;29;20051;-68
2023/12/03 07:25:11;;;;;;;39.28;32.00;;;;;;;23.08;nan;99303.81;4770007;30;20143;-68
2023/12/03 07:27:41;;;;;;;37.85;29.98;;;;;;;23.15;nan;99297.09;4759758;30;20513;-68
2023/12/03 07:30:11;;;;;;;41.70;32.17;;;;;;;23.07;nan;99289.50;4759735;30;20100;-68
2023/12/03 07:32:40;;;;;;;44.90;31.33;;;;;;;22.98;nan;99291.03;4754593;30;20058;-68
2023/12/03 07:35:10;;;;;;;39.10;29.20;;;;;;;23.04;nan;99284.63;4767584;29;20381;-67
2023/12/03 07:37:40;;;;;;;45.60;28.27;;;;;;;23.20;nan;99280.94;4764608;29;20055;-67
2023/12/03 07:40:10;;;;;;;41.50;30.27;;;;;;;23.38;nan;99276.16;4775452;29;20055;-66
2023/12/03 07:42:40;;;;;;;41.00;29.35;;;;;;;23.31;nan;99264.78;4764521;30;20047;-69
2023/12/03 07:45:10;;;;;;;39.60;30.52;;;;;;;23.05;nan;99255.72;4763351;30;20051;-65
2023/12/03 07:47:40;;;;;;;40.08;30.35;;;;;;;23.17;nan;99254.44;4768605;30;20055;-67
2023/12/03 07:50:12;;;;;;;38.60;29.70;;;;;;;23.18;nan;99255.25;4762379;29;20063;-68
2023/12/03 07:52:43;;;;;;;43.30;31.02;;;;;;;23.22;nan;99251.78;4757235;30;20047;-68
2023/12/03 07:55:12;;;;;;;37.33;29.42;;;;;;;23.29;nan;99241.53;4746228;30;20044;-65
2023/12/03 07:57:42;;;;;;;43.05;29.73;;;;;;;23.18;nan;99245.25;4768432;30;20051;-65
2023/12/03 08:00:13;;;;;;;37.05;30.42;;;;;;;23.13;nan;99237.13;4771073;29;20062;-65
2023/12/03 08:02:47;;;;;;;40.05;29.70;;;;;;;23.04;nan;99233.28;4765991;30;20051;-65
2023/12/03 08:05:17;;;;;;;43.22;31.95;;;;;;;22.79;nan;99225.00;4767850;30;20073;-65
2023/12/03 08:07:46;;;;;;;41.03;30.45;;;;;;;22.89;nan;99222.34;4776800;29;20108;-65
2023/12/03 08:10:16;;;;;;;47.30;32.97;;;;;;;22.94;nan;99222.38;4774857;29;20051;-65
2023/12/03 08:12:45;;;;;;;45.83;32.90;;;;;;;22.93;nan;99215.34;4775547;29;20091;-65
2023/12/03 08:15:15;;;;;;;43.85;32.28;;;;;;;22.95;nan;99213.22;4768675;30;20166;-65
2023/12/03 08:17:45;;;;;;;45.72;32.13;;;;;;;22.86;nan;99203.97;4781518;30;20057;-65
2023/12/03 08:20:14;;;;;;;44.63;32.13;;;;;;;22.89;nan;99213.44;4771806;30;20059;-65
2023/12/03 08:22:44;;;;;;;44.72;32.45;;;;;;;22.84;nan;99208.81;4776937;30;20056;-65
2023/12/03 08:25:14;;;;;;;47.45;32.83;;;;;;;22.95;nan;99207.81;4768932;29;20554;-65
2023/12/03 08:27:44;;;;;;;42.47;32.55;;;;;;;22.91;nan;99201.31;4780198;30;20556;-65
2023/12/03 08:30:14;;;;;;;44.17;33.17;;;;;;;22.87;nan;99202.09;4775309;30;20148;-65
2023/12/03 08:32:44;;;;;;;47.75;34.05;;;;;;;22.93;nan;99192.94;4768606;30;20086;-64
2023/12/03 08:35:13;;;;;;;44.80;32.60;;;;;;;23.05;nan;99191.69;4773425;30;20087;-65
2023/12/03 08:37:43;;;;;;;45.10;32.97;;;;;;;22.97;nan;99188.66;4779042;29;20147;-65
2023/12/03 08:40:13;;;;;;;50.50;32.45;;;;;;;23.07;nan;99183.28;4773731;30;20146;-65
2023/12/03 08:42:44;;;;;;;40.88;31.58;;;;;;;23.00;nan;99175.44;4778173;30;20043;-64
2023/12/03 08:45:13;;;;;;;48.28;33.88;;;;;;;22.83;nan;99181.00;4760926;30;20486;-65
2023/12/03 08:47:43;;;;;;;47.33;34.22;;;;;;;22.83;nan;99180.19;4763773;30;20477;-65
2023/12/03 08:50:12;;;;;;;46.75;34.67;;;;;;;22.76;nan;99175.00;4770386;29;20158;-65
2023/12/03 08:52:42;;;;;;;49.80;34.05;;;;;;;22.74;nan;99173.66;4778163;29;20066;-64
2023/12/03 08:55:12;;;;;;;43.35;33.20;;;;;;;22.83;nan;99175.59;4776373;30;20056;-64
2023/12/03 08:57:41;;;;;;;49.10;36.72;;;;;;;22.78;nan;99169.34;4763110;30;20066;-65
2023/12/03 09:00:12;;;;;;;46.65;34.38;;;;;;;22.85;nan;99161.81;4771075;29;20121;-65
2023/12/03 09:02:47;;;;;;;43.95;33.53;;;;;;;22.91;nan;99163.50;4766631;30;20047;-65
2023/12/03 09:05:16;;;;;;;42.67;32.50;;;;;;;22.94;nan;99154.84;4764533;29;20376;-65
2023/12/03 09:07:46;;;;;;;46.75;34.75;;;;;;;22.79;nan;99155.56;4781707;29;20051;-65
2023/12/03 09:10:16;;;;;;;53.05;36.17;;;;;;;22.67;nan;99157.63;4775882;29;20567;-65
2023/12/03 09:12:45;;;;;;;48.85;34.55;;;;;;;22.75;nan;99156.34;4756352;29;20083;-65
2023/12/03 09:15:15;;;;;;;50.17;34.33;;;;;;;22.81;nan;99153.44;4766612;29;20055;-64
2023/12/03 09:17:45;;;;;;;47.17;35.17;;;;;;;22.87;nan;99150.75;4779702;29;20070;-64
2023/12/03 09:20:14;;;;;;;45.08;34.50;;;;;;;22.79;nan;99146.69;4771603;30;20143;-65
2023/12/03 09:22:44;;;;;;;47.50;33.55;;;;;;;22.82;nan;99138.84;4771594;29;20059;-64
2023/12/03 09:25:13;;;;;;;47.05;34.65;;;;;;;22.84;nan;99141.28;4771335;30;20066;-65
2023/12/03 09:27:43;;;;;;;47.90;35.67;;;;;;;22.86;nan;99139.16;4771612;29;20461;-64
2023/12/03 09:30:12;;;;;;;44.65;34.65;;;;;;;22.79;nan;99138.56;4753816;30;20113;-65
2023/12/03 09:32:42;;;;;;;41.95;31.27;;;;;;;22.78;nan;99135.06;4755060;30;20051;-65
2023/12/03 09:35:12;;;;;;;48.08;35.70;;;;;;;22.77;nan;99129.91;4747675;30;20541;-66
2023/12/03 09:37:41;;;;;;;51.33;37.85;;;;;;;22.66;nan;99128.19;4772225;29;20051;-65
2023/12/03 09:40:11;;;;;;;57.50;40.78;;;;;;;22.60;nan;99118.44;4772517;29;20434;-65
2023/12/03 09:42:46;;;;;;;54.22;40.03;;;;;;;22.61;nan;99117.34;4757458;30;20076;-65
2023/12/03 09:45:17;;;;;;;58.78;41.53;;;;;;;22.59;nan;99119.50;4766762;29;20055;-64
2023/12/03 09:47:57;;;;;;;56.85;41.72;;;;;;;22.57;nan;99118.97;4768987;29;20056;-64
2023/12/03 09:50:31;;;;;;;58.83;42.80;;;;;;;22.45;nan;99110.22;4768391;30;20095;-65
2023/12/03 09:53:06;;;;;;;64.80;45.50;;;;;;;22.40;nan;99111.00;4768796;29;20051;-64
2023/12/03 09:55:37;;;;;;;72.95;47.08;;;;;;;22.34;nan;99115.56;4768243;30;20048;-64
2023/12/03 09:58:10;;;;;;;65.57;43.35;;;;;;;22.42;nan;99113.44;4767766;30;20079;-65
2023/12/03 10:00:39;;;;;;;;;;;;;;;22.35;nan;99106.38;4769008;30;20060;-65
2023/12/03 10:03:08;;;;;;;66.00;43.88;;;;;;;22.33;nan;99110.41;4767345;29;20029;-65
2023/12/03 10:05:38;;;;;;;73.40;45.53;;;;;;;22.24;nan;99095.75;4768090;30;20847;-65
2023/12/03 10:08:09;;;;;;;70.03;42.22;;;;;;;22.20;nan;99090.06;4767030;29;20059;-66
2023/12/03 10:10:42;;;;;;;75.22;44.88;;;;;;;22.20;nan;99098.19;4766645;30;20062;-66
2023/12/03 10:13:14;;;;;;;71.32;43.78;;;;;;;22.20;nan;99098.19;4762152;30;20451;-66
2023/12/03 10:15:43;;;;;;;68.63;44.10;;;;;;;22.13;nan;99100.25;4761511;29;20112;-64
2023/12/03 10:18:13;;;;;;;78.95;44.53;;;;;;;22.16;nan;99105.16;4762323;29;20138;-63
2023/12/03 10:20:43;;;;;;;63.10;40.92;;;;;;;22.13;nan;99094.84;4761064;29;20052;-64
2023/12/03 10:23:18;;;;;;;66.63;41.33;;;;;;;22.08;nan;99094.84;4763863;29;20055;-66
2023/12/03 10:25:47;;;;;;;74.18;43.03;;;;;;;22.01;nan;99091.53;4757839;29;20047;-64
2023/12/03 10:28:18;;;;;;;76.82;44.72;;;;;;;21.92;nan;99090.34;4748314;29;20540;-64
2023/12/03 10:30:50;;;;;;;61.83;40.33;;;;;;;21.85;nan;99087.88;4766248;30;20115;-64
2023/12/03 10:33:21;;;;;;;70.85;44.22;;;;;;;21.83;nan;99094.56;4759897;29;20372;-64
2023/12/03 10:35:52;;;;;;;70.65;42.15;;;;;;;21.84;nan;99085.41;4756735;30;20571;-64
2023/12/03 10:38:22;;;;;;;76.70;44.50;;;;;;;21.76;nan;99092.09;4757447;29;21565;-64
2023/12/03 10:40:51;;;;;;;85.22;46.22;;;;;;;21.71;nan;99083.94;4761309;30;20152;-64
2023/12/03 10:43:23;;;;;;;77.95;44.90;;;;;;;21.65;nan;99092.22;4761534;29;20052;-64
2023/12/03 10:45:53;;;;;;;77.65;44.53;;;;;;;21.61;nan;99083.84;4758697;30;20052;-64
2023/12/03 10:48:24;;;;;;;82.97;45.60;;;;;;;21.57;nan;99082.72;4756450;30;20087;-65
2023/12/03 10:51:02;;;;;;;74.47;44.83;;;;;;;21.49;nan;99081.31;4757209;30;20060;-63
2023/12/03 10:53:33;;;;;;;75.03;44.90;;;;;;;21.45;nan;99077.50;4762956;29;20370;-66
2023/12/03 10:56:05;;;;;;;71.10;43.97;;;;;;;21.41;nan;99079.06;4761174;30;20047;-66
2023/12/03 10:58:39;;;;;;;74.75;45.10;;;;;;;21.32;nan;99072.50;4758812;29;20059;-66
2023/12/03 11:01:11;;;;;;;71.20;44.92;;;;;;;21.20;nan;99074.50;4758766;29;20175;-67
2023/12/03 11:03:58;;;;;;;70.97;44.28;;;;;;;21.16;nan;99072.56;4758680;29;20388;-66
2023/12/03 11:06:34;;;;;;;82.55;47.40;;;;;;;21.07;nan;99066.78;4762030;30;20523;-67
2023/12/03 11:09:07;;;;;;;79.03;48.00;;;;;;;20.98;nan;99068.28;4758293;30;20128;-67
2023/12/03 11:11:39;;;;;;;82.10;49.58;;;;;;;20.91;nan;99068.47;4757121;30;20126;-67
2023/12/03 11:14:08;;;;;;;80.47;46.83;;;;;;;20.80;nan;99057.84;4758505;29;20811;-68
2023/12/03 11:16:59;;;;;;;84.22;46.88;;;;;;;20.82;nan;99059.22;4763929;29;20605;-67
2023/12/03 11:19:31;;;;;;;90.05;47.72;;;;;;;20.72;nan;99055.56;4748141;30;20062;-62
2023/12/03 11:22:27;;;;;;;89.05;49.08;;;;;;;20.59;nan;99049.47;4761796;29;20154;-66
2023/12/03 11:25:14;;;;;;;99.28;49.47;;;;;;;20.53;nan;99060.44;4748707;30;20051;-66
2023/12/03 11:27:45;;;;;;;78.43;47.15;;;;;;;20.43;nan;99055.72;4760799;30;20052;-65
2023/12/03 11:30:34;;;;;;;79.68;49.28;;;;;;;20.43;nan;99058.41;4762593;29;20060;-66
2023/12/03 11:33:12;;;;;;;80.18;46.03;;;;;;;20.28;nan;99052.78;4761848;29;20206;-66
2023/12/03 11:35:45;;;;;;;80.25;46.03;;;;;;;20.14;nan;99054.16;4764318;29;20867;-65
2023/12/03 11:38:21;;;;;;;92.55;44.63;;;;;;;20.01;nan;99049.13;4759006;29;20687;-66
2023/12/03 11:40:51;;;;;;;85.45;47.10;;;;;;;19.91;nan;99057.84;4763717;30;20044;-66
2023/12/03 11:43:26;;;;;;;99.60;51.72;;;;;;;19.91;nan;99054.34;4763564;30;22078;-64